Time;durP1;ratioP1;P1;durP2;ratioP2;P2;SDS_P1;SDS_P2;PMS_P1;PMS_P2;Temp;Humidity;BMP_temperature;BMP_pressure;BME280_temperature;BME280_humidity;BME280_pressure;Samples;Min_cycle;Max_cycle;Signal;HPM_P1;HPM_P2
2022/12/17 13:06:08;;;;;;;3.83;2.28;;;;;;;;;;5058269;28;20052;-30
2022/12/17 13:08:34;;;;;;;3.83;2.33;;;;;;;;;;5057863;28;20040;-30
2022/12/17 13:11:09;;;;;;;4.22;1.80;;;;;;;;;;5057790;28;20037;-31
2022/12/17 13:13:39;;;;;;;4.63;3.33;;;;;;;;;;5057980;28;20029;-30
2022/12/17 13:16:25;;;;;;;2.88;2.65;;;;;;;;;;5057637;28;20039;-30
2022/12/17 13:19:00;;;;;;;4.47;2.72;;;;;;;;;;5057710;28;20024;-30
2022/12/17 13:21:28;;;;;;;3.45;2.85;;;;;;;;;;5057685;28;20086;-31
2022/12/17 13:23:54;;;;;;;9.55;2.90;;;;;;;;;;5057390;28;20095;-31
2022/12/17 13:26:22;;;;;;;6.80;3.40;;;;;;;;;;5057825;28;20467;-30
2022/12/17 13:28:59;;;;;;;3.80;2.72;;;;;;;;;;5057376;28;20029;-31
2022/12/17 13:31:27;;;;;;;5.75;2.67;;;;;;;;;;5057447;28;20033;-30
2022/12/17 13:33:53;;;;;;;6.70;2.17;;;;;;;;;;5057653;28;20029;-31
2022/12/17 13:36:25;;;;;;;5.60;3.08;;;;;;;;;;5057645;28;20045;-31
2022/12/17 13:38:57;;;;;;;3.35;2.22;;;;;;;;;;5057350;28;20071;-30
2022/12/17 13:41:31;;;;;;;4.25;2.40;;;;;;;;;;5057289;28;20091;-31
2022/12/17 13:44:00;;;;;;;5.25;2.28;;;;;;;;;;5057119;28;20082;-30
2022/12/17 13:46:35;;;;;;;9.35;2.88;;;;;;;;;;5057415;28;20060;-31
2022/12/17 13:49:05;;;;;;;4.32;2.80;;;;;;;;;;5057204;28;20088;-31
2022/12/17 13:51:33;;;;;;;9.20;3.63;;;;;;;;;;5057135;28;20036;-31
2022/12/17 13:54:01;;;;;;;13.57;3.25;;;;;;;;;;5056948;28;20267;-30
2022/12/17 13:56:34;;;;;;;5.40;2.45;;;;;;;;;;5057559;28;20100;-31
2022/12/17 13:59:02;;;;;;;7.13;2.50;;;;;;;;;;5057279;28;20025;-31
2022/12/17 14:01:28;;;;;;;9.27;2.33;;;;;;;;;;5056920;28;20170;-32
2022/12/17 14:03:56;;;;;;;9.48;2.60;;;;;;;;;;5056354;28;20367;-31
2022/12/17 14:06:23;;;;;;;3.85;2.45;;;;;;;;;;5057120;28;20037;-31
2022/12/17 14:08:50;;;;;;;5.22;2.35;;;;;;;;;;5056825;28;20036;-31
2022/12/17 14:14:02;;;;;;;5.60;3.13;;;;;;;;;;5056933;28;20210;-31
2022/12/17 14:16:28;;;;;;;3.88;2.50;;;;;;;;;;5056633;28;20106;-32
2022/12/17 14:18:58;;;;;;;3.15;2.40;;;;;;;;;;5056612;28;20109;-31
2022/12/17 14:21:25;;;;;;;7.22;2.70;;;;;;;;;;5056549;28;20033;-31
2022/12/17 14:23:51;;;;;;;5.43;2.65;;;;;;;;;;5056353;28;20028;-30
2022/12/17 14:26:20;;;;;;;5.60;2.40;;;;;;;;;;5056740;28;20017;-31
2022/12/17 14:28:52;;;;;;;6.40;2.22;;;;;;;;;;5056732;28;20406;-31
2022/12/17 14:31:20;;;;;;;4.22;2.40;;;;;;;;;;5056676;28;20033;-31
2022/12/17 14:33:46;;;;;;;5.25;1.95;;;;;;;;;;5056627;28;20037;-30
2022/12/17 14:36:16;;;;;;;5.18;2.28;;;;;;;;;;5056500;28;20025;-31
2022/12/17 14:38:53;;;;;;;3.47;2.47;;;;;;;;;;5056188;28;20115;-31
2022/12/17 14:44:05;;;;;;;5.85;2.47;;;;;;;;;;5056154;28;20043;-31
2022/12/17 14:46:32;;;;;;;3.20;2.20;;;;;;;;;;5056585;28;20108;-32
2022/12/17 14:49:01;;;;;;;4.00;2.30;;;;;;;;;;5055984;28;20025;-30
2022/12/17 14:51:46;;;;;;;3.83;2.28;;;;;;;;;;5055890;28;20033;-30
2022/12/17 14:54:15;;;;;;;5.97;2.45;;;;;;;;;;5055929;28;20378;-30
2022/12/17 14:56:41;;;;;;;6.70;2.85;;;;;;;;;;5056397;28;20071;-30
2022/12/17 14:59:26;;;;;;;2.97;2.28;;;;;;;;;;5055853;28;20106;-30
2022/12/17 15:01:53;;;;;;;3.45;2.38;;;;;;;;;;5055717;28;20025;-32
2022/12/17 15:04:20;;;;;;;2.85;2.33;;;;;;;;;;5055459;28;20045;-31
2022/12/17 15:06:46;;;;;;;3.55;2.60;;;;;;;;;;5055940;28;20083;-30
2022/12/17 15:09:13;;;;;;;6.35;2.53;;;;;;;;;;5055829;28;20049;-30
2022/12/17 15:11:39;;;;;;;4.38;2.72;;;;;;;;;;5055831;28;20135;-31
2022/12/17 15:14:05;;;;;;;4.05;2.38;;;;;;;;;;5054688;28;20028;-32
2022/12/17 15:16:32;;;;;;;7.45;3.17;;;;;;;;;;5055801;28;20083;-31
2022/12/17 15:18:59;;;;;;;6.57;2.70;;;;;;;;;;5056483;28;20025;-31
2022/12/17 15:21:25;;;;;;;14.10;3.83;;;;;;;;;;5055983;28;20036;-31
2022/12/17 15:23:51;;;;;;;19.42;3.92;;;;;;;;;;5055511;28;20025;-32
2022/12/17 15:26:18;;;;;;;14.43;3.58;;;;;;;;;;5054340;28;20359;-30
2022/12/17 15:28:45;;;;;;;11.23;3.03;;;;;;;;;;5055331;28;20029;-31
2022/12/17 15:31:12;;;;;;;6.45;3.08;;;;;;;;;;5054263;28;20102;-30
2022/12/17 15:33:38;;;;;;;5.38;2.67;;;;;;;;;;5055075;28;20028;-31
2022/12/17 15:36:04;;;;;;;10.40;2.92;;;;;;;;;;5055419;28;20100;-31
2022/12/17 15:38:31;;;;;;;12.73;4.00;;;;;;;;;;5055658;28;20051;-32
2022/12/17 15:43:09;;;;;;;5.30;3.65;;;;;;;;;;5054993;28;20036;-30
2022/12/17 15:43:46;;;;;;;5.63;2.95;;;;;;;;;;5054840;28;20051;-30
2022/12/17 15:46:12;;;;;;;5.43;2.38;;;;;;;;;;5055036;28;20387;-30
2022/12/17 15:48:39;;;;;;;5.47;2.78;;;;;;;;;;5054950;28;20029;-32
2022/12/17 15:51:05;;;;;;;4.57;2.65;;;;;;;;;;5055225;28;20029;-32
2022/12/17 15:53:31;;;;;;;6.47;3.97;;;;;;;;;;5054854;28;20493;-32
2022/12/17 15:56:01;;;;;;;10.00;3.08;;;;;;;;;;5055122;28;20489;-30
2022/12/17 15:58:27;;;;;;;6.40;2.65;;;;;;;;;;5055079;28;20112;-31
2022/12/17 16:00:53;;;;;;;6.13;2.97;;;;;;;;;;5054690;28;20035;-30
2022/12/17 16:03:19;;;;;;;9.70;2.75;;;;;;;;;;5054875;28;20352;-30
2022/12/17 16:05:46;;;;;;;2.85;2.50;;;;;;;;;;5054508;28;20049;-30
2022/12/17 16:08:12;;;;;;;5.82;2.88;;;;;;;;;;5053714;28;20029;-31
2022/12/17 16:10:38;;;;;;;5.13;2.80;;;;;;;;;;5054910;28;20033;-30
2022/12/17 16:13:04;;;;;;;6.00;3.13;;;;;;;;;;5054573;28;20025;-30
2022/12/17 16:15:31;;;;;;;7.45;3.30;;;;;;;;;;5054871;28;20341;-29
2022/12/17 16:17:57;;;;;;;7.90;2.33;;;;;;;;;;5054638;28;20057;-30
2022/12/17 16:20:23;;;;;;;4.15;2.50;;;;;;;;;;5054820;28;20029;-30
2022/12/17 16:22:49;;;;;;;3.38;2.30;;;;;;;;;;5054512;28;20025;-30
2022/12/17 16:25:16;;;;;;;6.72;2.80;;;;;;;;;;5055963;28;20036;-29
2022/12/17 16:27:42;;;;;;;11.52;2.97;;;;;;;;;;5061378;28;20025;-31
2022/12/17 16:30:10;;;;;;;7.18;3.00;;;;;;;;;;5061120;28;20028;-31
2022/12/17 16:32:36;;;;;;;4.13;2.40;;;;;;;;;;5060970;28;20440;-31
2022/12/17 16:35:03;;;;;;;7.15;2.38;;;;;;;;;;5061311;28;20052;-30
2022/12/17 16:37:29;;;;;;;7.88;2.55;;;;;;;;;;5061016;28;20033;-31
2022/12/17 16:39:55;;;;;;;3.92;2.15;;;;;;;;;;5061020;28;20028;-32
2022/12/17 16:42:22;;;;;;;7.95;2.58;;;;;;;;;;5060910;28;20115;-30
2022/12/17 16:44:48;;;;;;;6.95;3.03;;;;;;;;;;5060841;28;20029;-30
2022/12/17 16:47:14;;;;;;;8.20;3.17;;;;;;;;;;5060900;28;20037;-32
2022/12/17 16:49:40;;;;;;;7.90;2.67;;;;;;;;;;5061237;28;20036;-30
2022/12/17 16:52:07;;;;;;;4.43;2.53;;;;;;;;;;5060802;28;20063;-30
2022/12/17 16:54:33;;;;;;;3.60;2.38;;;;;;;;;;5060854;28;20044;-31
2022/12/17 16:57:02;;;;;;;3.72;2.30;;;;;;;;;;5060864;28;20112;-29
2022/12/17 16:59:29;;;;;;;4.38;2.75;;;;;;;;;;5061097;28;20025;-31
2022/12/17 17:01:56;;;;;;;7.55;2.40;;;;;;;;;;5060739;28;20029;-31
2022/12/17 17:04:22;;;;;;;10.23;2.67;;;;;;;;;;5060490;28;20514;-29
2022/12/17 17:06:50;;;;;;;6.65;2.67;;;;;;;;;;5061116;28;20037;-30
2022/12/17 17:09:16;;;;;;;3.58;2.53;;;;;;;;;;5060756;28;20444;-29
2022/12/17 17:11:43;;;;;;;4.32;2.42;;;;;;;;;;5060990;28;20029;-30
2022/12/17 17:14:09;;;;;;;6.50;2.78;;;;;;;;;;5060666;28;20033;-30
2022/12/17 17:16:35;;;;;;;5.93;2.55;;;;;;;;;;5061027;28;20363;-30
2022/12/17 17:19:02;;;;;;;3.63;2.42;;;;;;;;;;5060964;28;20029;-31
2022/12/17 17:21:30;;;;;;;5.93;2.25;;;;;;;;;;5061181;28;20033;-31
2022/12/17 17:24:05;;;;;;;2.72;2.53;;;;;;;;;;5059729;28;20024;-30
2022/12/17 17:26:32;;;;;;;6.63;2.83;;;;;;;;;;5060660;28;20029;-30
2022/12/17 17:28:59;;;;;;;6.38;2.65;;;;;;;;;;5060892;28;20031;-30
2022/12/17 17:31:25;;;;;;;9.73;3.60;;;;;;;;;;5060599;28;20021;-33
2022/12/17 17:33:52;;;;;;;5.90;2.72;;;;;;;;;;5060747;28;20032;-30
2022/12/17 17:36:20;;;;;;;5.20;2.17;;;;;;;;;;5060588;28;20028;-30
2022/12/17 17:38:46;;;;;;;2.75;2.22;;;;;;;;;;5056979;28;20040;-30
2022/12/17 17:41:13;;;;;;;3.53;2.33;;;;;;;;;;5057580;28;20095;-30
2022/12/17 17:43:39;;;;;;;4.60;2.15;;;;;;;;;;5057457;28;20055;-30
2022/12/17 17:46:07;;;;;;;5.13;2.70;;;;;;;;;;5057191;28;20452;-31
2022/12/17 17:48:33;;;;;;;2.92;2.63;;;;;;;;;;5057153;28;20016;-29
2022/12/17 17:51:00;;;;;;;3.33;2.50;;;;;;;;;;5057473;28;20150;-31
2022/12/17 17:53:27;;;;;;;3.88;2.80;;;;;;;;;;5057014;28;20029;-31
2022/12/17 17:55:53;;;;;;;5.25;2.38;;;;;;;;;;5057332;28;20029;-30
2022/12/17 17:58:19;;;;;;;5.63;3.33;;;;;;;;;;5057579;28;20028;-30
2022/12/17 18:00:46;;;;;;;4.97;2.90;;;;;;;;;;5057748;28;20047;-30
2022/12/17 18:03:12;;;;;;;6.22;2.88;;;;;;;;;;5057048;28;20348;-29
2022/12/17 18:05:38;;;;;;;5.68;3.15;;;;;;;;;;5056740;28;20048;-31
2022/12/17 18:08:05;;;;;;;4.55;2.72;;;;;;;;;;5056815;28;20047;-31
2022/12/17 18:10:31;;;;;;;6.65;3.97;;;;;;;;;;5056823;28;20029;-30
2022/12/17 18:15:42;;;;;;;6.25;3.45;;;;;;;;;;5056773;28;20047;-30
2022/12/17 18:18:08;;;;;;;6.18;2.80;;;;;;;;;;5056625;28;20028;-31
2022/12/17 18:20:34;;;;;;;8.63;2.55;;;;;;;;;;5056647;28;20029;-34
2022/12/17 18:23:01;;;;;;;5.82;4.15;;;;;;;;;;5056683;28;20029;-30
2022/12/17 18:25:27;;;;;;;4.05;3.17;;;;;;;;;;5056794;28;20028;-31
2022/12/17 18:27:53;;;;;;;4.03;2.88;;;;;;;;;;5056703;28;20028;-31
2022/12/17 18:30:20;;;;;;;6.35;3.40;;;;;;;;;;5056958;28;20064;-32
2022/12/17 18:32:46;;;;;;;7.70;2.92;;;;;;;;;;5056530;28;20171;-30
2022/12/17 18:35:12;;;;;;;4.10;3.05;;;;;;;;;;5056614;28;20037;-30
2022/12/17 18:37:38;;;;;;;7.68;2.80;;;;;;;;;;5056302;28;20115;-31
2022/12/17 18:40:05;;;;;;;5.45;2.92;;;;;;;;;;5056210;28;20448;-32
2022/12/17 18:45:16;;;;;;;6.15;3.00;;;;;;;;;;5056238;28;20086;-30
2022/12/17 18:47:43;;;;;;;6.30;2.92;;;;;;;;;;5056354;28;20028;-33
2022/12/17 18:50:10;;;;;;;3.80;3.38;;;;;;;;;;5055174;28;20033;-32
2022/12/17 18:52:36;;;;;;;5.78;2.53;;;;;;;;;;5056105;28;20021;-33
2022/12/17 18:55:02;;;;;;;4.30;2.53;;;;;;;;;;5055938;28;20037;-31
2022/12/17 18:57:28;;;;;;;5.20;3.05;;;;;;;;;;5055848;28;20037;-31
2022/12/17 18:59:55;;;;;;;4.32;2.28;;;;;;;;;;5056143;28;20028;-31
2022/12/17 19:02:21;;;;;;;3.83;3.42;;;;;;;;;;5056084;28;20033;-33
2022/12/17 19:04:48;;;;;;;3.15;2.80;;;;;;;;;;5055656;28;20384;-30
2022/12/17 19:07:14;;;;;;;4.43;2.72;;;;;;;;;;5055993;28;20033;-30
2022/12/17 19:09:41;;;;;;;4.97;2.50;;;;;;;;;;5055934;28;20032;-32
2022/12/17 19:12:08;;;;;;;4.70;2.83;;;;;;;;;;5055627;28;20025;-30
2022/12/17 19:14:34;;;;;;;5.88;3.00;;;;;;;;;;5055534;28;20032;-31
2022/12/17 19:17:01;;;;;;;4.28;2.67;;;;;;;;;;5055803;28;20100;-30
2022/12/17 19:19:27;;;;;;;4.38;3.03;;;;;;;;;;5055473;28;20478;-31
2022/12/17 19:21:54;;;;;;;4.78;2.17;;;;;;;;;;5055356;28;20039;-31
2022/12/17 19:24:21;;;;;;;3.20;2.70;;;;;;;;;;5055276;28;20025;-32
2022/12/17 19:26:48;;;;;;;4.90;3.03;;;;;;;;;;5055327;28;20029;-30
2022/12/17 19:29:15;;;;;;;5.13;2.90;;;;;;;;;;5055841;28;20092;-31
2022/12/17 19:31:41;;;;;;;3.60;2.15;;;;;;;;;;5055519;28;20079;-29
2022/12/17 19:34:10;;;;;;;2.85;2.10;;;;;;;;;;5055409;28;20029;-31
2022/12/17 19:36:37;;;;;;;5.30;2.53;;;;;;;;;;5055478;28;20325;-30
2022/12/17 19:39:04;;;;;;;4.18;2.60;;;;;;;;;;5055153;28;20025;-30
2022/12/17 19:41:31;;;;;;;5.63;3.20;;;;;;;;;;5055123;28;20420;-30
2022/12/17 19:44:02;;;;;;;4.07;2.40;;;;;;;;;;5054856;28;20094;-31
2022/12/17 19:46:29;;;;;;;4.10;2.72;;;;;;;;;;5054970;28;20028;-31
2022/12/17 19:48:56;;;;;;;3.90;3.08;;;;;;;;;;5055008;28;20024;-29
2022/12/17 19:51:23;;;;;;;5.68;3.08;;;;;;;;;;5055174;28;20029;-31
2022/12/17 19:53:50;;;;;;;4.35;2.63;;;;;;;;;;5054775;28;20045;-31
2022/12/17 19:56:21;;;;;;;3.78;2.25;;;;;;;;;;5055094;28;20041;-31
2022/12/17 19:58:52;;;;;;;2.45;2.25;;;;;;;;;;5053892;28;20063;-29
2022/12/17 20:01:20;;;;;;;3.33;3.03;;;;;;;;;;5054740;28;20029;-31
2022/12/17 20:03:46;;;;;;;2.60;2.25;;;;;;;;;;5054643;28;20371;-32
2022/12/17 20:06:13;;;;;;;2.70;2.50;;;;;;;;;;5055328;28;20044;-30
2022/12/17 20:08:39;;;;;;;7.28;3.05;;;;;;;;;;5054720;28;20032;-30
2022/12/17 20:13:55;;;;;;;3.47;3.17;;;;;;;;;;5055138;28;20047;-29
2022/12/17 20:16:21;;;;;;;4.03;2.90;;;;;;;;;;5054593;28;20033;-30
2022/12/17 20:18:47;;;;;;;4.15;3.05;;;;;;;;;;5055352;28;20102;-30
2022/12/17 20:21:14;;;;;;;3.90;2.80;;;;;;;;;;5054561;28;20029;-30
2022/12/17 20:23:40;;;;;;;3.75;2.95;;;;;;;;;;5054392;28;20025;-31
2022/12/17 20:26:07;;;;;;;4.63;2.70;;;;;;;;;;5055001;28;20039;-33
2022/12/17 20:28:34;;;;;;;3.28;2.72;;;;;;;;;;5054755;28;20017;-31
2022/12/17 20:31:00;;;;;;;6.55;3.10;;;;;;;;;;5054465;28;20083;-31
2022/12/17 20:33:26;;;;;;;5.30;2.97;;;;;;;;;;5053381;28;20040;-29
2022/12/17 20:35:53;;;;;;;4.68;2.53;;;;;;;;;;5054656;28;20511;-30
2022/12/17 20:38:19;;;;;;;3.33;2.50;;;;;;;;;;5054424;28;20063;-30
2022/12/17 20:40:45;;;;;;;6.05;3.10;;;;;;;;;;5054286;28;20032;-30
2022/12/17 20:43:12;;;;;;;4.35;2.88;;;;;;;;;;5054189;28;20037;-31
2022/12/17 20:45:38;;;;;;;5.82;3.10;;;;;;;;;;5054605;28;20029;-30
2022/12/17 20:48:04;;;;;;;2.83;2.63;;;;;;;;;;5054273;28;20444;-30
2022/12/17 20:50:30;;;;;;;4.93;3.05;;;;;;;;;;5053754;28;20090;-30
2022/12/17 20:53:00;;;;;;;4.93;3.22;;;;;;;;;;5054123;28;20033;-30
2022/12/17 20:55:26;;;;;;;4.25;2.50;;;;;;;;;;5054442;28;20033;-31
2022/12/17 20:57:52;;;;;;;3.25;2.83;;;;;;;;;;5054468;28;20039;-30
2022/12/17 21:00:18;;;;;;;4.75;3.17;;;;;;;;;;5054220;28;20025;-29
2022/12/17 21:02:44;;;;;;;3.08;2.13;;;;;;;;;;5054459;28;20024;-29
2022/12/17 21:05:10;;;;;;;2.33;2.20;;;;;;;;;;5053869;28;20041;-31
2022/12/17 21:07:37;;;;;;;2.92;2.72;;;;;;;;;;5054147;28;20025;-31
2022/12/17 21:10:03;;;;;;;2.47;2.28;;;;;;;;;;5054044;28;20469;-33
2022/12/17 21:13:27;;;;;;;3.80;2.65;;;;;;;;;;5054111;28;20025;-29
2022/12/17 21:15:15;;;;;;;4.15;3.28;;;;;;;;;;5057754;28;20025;-31
2022/12/17 21:17:41;;;;;;;3.03;2.72;;;;;;;;;;5057751;28;20029;-32
2022/12/17 21:20:08;;;;;;;2.80;2.42;;;;;;;;;;5057713;28;20029;-30
2022/12/17 21:22:34;;;;;;;3.00;2.70;;;;;;;;;;5057639;28;20020;-29
2022/12/17 21:25:00;;;;;;;3.55;2.58;;;;;;;;;;5058130;28;20116;-29
2022/12/17 21:27:27;;;;;;;3.30;2.70;;;;;;;;;;5057658;28;20107;-31
2022/12/17 21:29:53;;;;;;;4.35;2.70;;;;;;;;;;5057647;28;20029;-29
2022/12/17 21:32:19;;;;;;;3.00;2.70;;;;;;;;;;5057703;28;20356;-32
2022/12/17 21:34:45;;;;;;;4.60;2.97;;;;;;;;;;5057752;28;20037;-30
2022/12/17 21:37:12;;;;;;;4.28;3.35;;;;;;;;;;5057460;28;20029;-31
2022/12/17 21:39:39;;;;;;;3.30;3.00;;;;;;;;;;5056493;28;20028;-30
2022/12/17 21:44:53;;;;;;;2.88;2.45;;;;;;;;;;5057396;28;20056;-31
2022/12/17 21:47:19;;;;;;;3.63;2.67;;;;;;;;;;5057851;28;20139;-30
2022/12/17 21:49:45;;;;;;;3.58;2.30;;;;;;;;;;5057493;28;20056;-30
2022/12/17 21:52:11;;;;;;;4.10;2.75;;;;;;;;;;5057379;28;20033;-31
2022/12/17 21:54:38;;;;;;;2.75;2.53;;;;;;;;;;5057152;28;20028;-32
2022/12/17 21:57:04;;;;;;;3.03;2.58;;;;;;;;;;5056118;28;20448;-30
2022/12/17 21:59:30;;;;;;;2.50;2.28;;;;;;;;;;5057002;28;20112;-29
2022/12/17 22:01:56;;;;;;;3.15;2.53;;;;;;;;;;5057173;28;20414;-30
2022/12/17 22:04:23;;;;;;;2.50;2.22;;;;;;;;;;5057395;28;20045;-31
2022/12/17 22:06:49;;;;;;;3.10;2.30;;;;;;;;;;5057155;28;20098;-31
2022/12/17 22:09:15;;;;;;;3.33;2.42;;;;;;;;;;5056845;28;20025;-30
2022/12/17 22:11:41;;;;;;;3.05;2.55;;;;;;;;;;5056823;28;20352;-30
2022/12/17 22:14:10;;;;;;;7.35;3.28;;;;;;;;;;5056955;28;20028;-30
2022/12/17 22:16:41;;;;;;;3.38;2.42;;;;;;;;;;5056982;28;20112;-30
2022/12/17 22:19:11;;;;;;;5.22;2.80;;;;;;;;;;5056972;28;20448;-31
2022/12/17 22:21:38;;;;;;;2.75;2.55;;;;;;;;;;5056613;28;20448;-31
2022/12/17 22:24:05;;;;;;;6.55;3.90;;;;;;;;;;5056372;28;20075;-31
2022/12/17 22:26:32;;;;;;;3.80;3.40;;;;;;;;;;5056800;28;20029;-31
2022/12/17 22:28:59;;;;;;;3.28;2.67;;;;;;;;;;5056791;28;20454;-30
2022/12/17 22:34:12;;;;;;;3.75;2.42;;;;;;;;;;5056444;28;20175;-31
2022/12/17 22:36:38;;;;;;;4.00;3.42;;;;;;;;;;5056340;28;20033;-30
2022/12/17 22:39:09;;;;;;;4.00;2.47;;;;;;;;;;5056583;28;20348;-30
2022/12/17 22:44:20;;;;;;;3.15;2.67;;;;;;;;;;5056504;28;20044;-34
2022/12/17 22:46:46;;;;;;;3.22;2.70;;;;;;;;;;5056373;28;20356;-31
2022/12/17 22:49:12;;;;;;;3.30;2.38;;;;;;;;;;5056391;28;20087;-31
2022/12/17 22:51:40;;;;;;;4.13;2.58;;;;;;;;;;5056078;28;20029;-31
2022/12/17 22:54:09;;;;;;;3.88;2.50;;;;;;;;;;5055893;28;20033;-30
2022/12/17 22:56:36;;;;;;;5.28;2.53;;;;;;;;;;5055946;28;20033;-30
2022/12/17 22:59:02;;;;;;;2.85;2.65;;;;;;;;;;5056163;28;20114;-31
2022/12/17 23:01:28;;;;;;;3.00;2.70;;;;;;;;;;5055887;28;20025;-30
2022/12/17 23:03:55;;;;;;;3.10;2.80;;;;;;;;;;5055429;28;20049;-34
2022/12/17 23:06:22;;;;;;;2.92;2.33;;;;;;;;;;5056345;28;20040;-30
2022/12/17 23:08:48;;;;;;;4.57;2.63;;;;;;;;;;5055696;28;20021;-31
2022/12/17 23:11:15;;;;;;;2.78;2.55;;;;;;;;;;5055663;28;20043;-30
2022/12/17 23:13:42;;;;;;;3.85;2.83;;;;;;;;;;5055549;28;20033;-32
2022/12/17 23:16:10;;;;;;;2.60;2.40;;;;;;;;;;5055845;28;20410;-31
2022/12/17 23:18:36;;;;;;;4.18;3.78;;;;;;;;;;5055836;28;20021;-31
2022/12/17 23:21:13;;;;;;;3.38;2.72;;;;;;;;;;5055455;28;20037;-31
2022/12/17 23:23:39;;;;;;;2.67;2.30;;;;;;;;;;5055329;28;20091;-31
2022/12/17 23:26:09;;;;;;;3.22;2.28;;;;;;;;;;5055408;28;20055;-30
2022/12/17 23:28:38;;;;;;;3.80;2.45;;;;;;;;;;5055635;28;20013;-31
2022/12/17 23:31:06;;;;;;;3.58;2.67;;;;;;;;;;5055598;28;20021;-30
2022/12/17 23:33:32;;;;;;;2.92;2.22;;;;;;;;;;5055452;28;20122;-30
2022/12/17 23:36:03;;;;;;;2.72;2.53;;;;;;;;;;5054550;28;20033;-29
2022/12/17 23:38:32;;;;;;;3.88;2.72;;;;;;;;;;5055202;28;20029;-31
2022/12/17 23:41:04;;;;;;;2.65;2.45;;;;;;;;;;5055691;28;20104;-32
2022/12/17 23:43:31;;;;;;;3.53;2.70;;;;;;;;;;5055217;28;20063;-32
2022/12/17 23:45:57;;;;;;;2.42;2.22;;;;;;;;;;5055094;28;20100;-30
2022/12/17 23:48:24;;;;;;;3.63;2.97;;;;;;;;;;5055294;28;20056;-32
2022/12/17 23:50:50;;;;;;;6.63;2.90;;;;;;;;;;5055271;28;20087;-30
2022/12/17 23:53:16;;;;;;;4.57;2.30;;;;;;;;;;5054800;28;20025;-32
2022/12/17 23:55:42;;;;;;;2.78;2.45;;;;;;;;;;5054808;28;20494;-30
2022/12/17 23:58:09;;;;;;;4.40;2.60;;;;;;;;;;5054903;28;20029;-32
